createdAt,value
2019-02-06T00:00:53.580Z,10.82
2019-02-06T00:01:45.440Z,9.05
2019-02-06T00:02:31.922Z,10.08
2019-02-06T00:03:20.730Z,10.95
2019-02-06T00:04:06.669Z,10.00
2019-02-06T00:04:52.886Z,9.23
2019-02-06T00:05:39.125Z,10.03
2019-02-06T00:06:25.266Z,9.55
2019-02-06T00:07:11.601Z,9.08
2019-02-06T00:07:58.214Z,9.98
2019-02-06T00:08:44.150Z,9.75
2019-02-06T00:09:30.582Z,10.32
2019-02-06T00:10:16.939Z,9.60
2019-02-06T00:11:03.200Z,9.85
2019-02-06T00:11:49.694Z,10.30
2019-02-06T00:12:36.068Z,9.48
2019-02-06T00:13:22.311Z,10.23
2019-02-06T00:14:08.756Z,9.68
2019-02-06T00:14:54.752Z,9.85
2019-02-06T00:15:41.042Z,9.83
2019-02-06T00:16:27.675Z,9.45
2019-02-06T00:17:13.709Z,10.45
2019-02-06T00:17:59.889Z,9.70
2019-02-06T00:18:46.718Z,9.68
2019-02-06T00:19:32.998Z,10.20
2019-02-06T00:20:19.222Z,9.83
2019-02-06T00:21:05.396Z,9.25
2019-02-06T00:21:51.607Z,9.93
2019-02-06T00:22:37.765Z,10.32
2019-02-06T00:23:23.894Z,10.13
2019-02-06T00:24:10.141Z,9.90
2019-02-06T00:24:56.337Z,9.95
2019-02-06T00:25:42.579Z,9.95
2019-02-06T00:26:28.748Z,9.55
2019-02-06T00:27:15.144Z,9.93
2019-02-06T00:28:01.583Z,9.28
2019-02-06T00:28:47.379Z,9.38
2019-02-06T00:29:33.539Z,9.15
2019-02-06T00:30:21.037Z,9.78
2019-02-06T00:31:06.998Z,10.08
2019-02-06T00:31:53.156Z,10.10
2019-02-06T00:32:40.277Z,9.15
2019-02-06T00:33:26.347Z,9.45
2019-02-06T00:34:12.126Z,10.15
2019-02-06T00:34:57.894Z,9.70
2019-02-06T00:35:44.051Z,9.25
2019-02-06T00:36:30.315Z,10.30
2019-02-06T00:37:16.448Z,9.65
2019-02-06T00:38:05.253Z,9.38
2019-02-06T00:38:50.474Z,9.55
2019-02-06T00:39:36.471Z,9.55
2019-02-06T00:40:22.657Z,9.13
2019-02-06T00:41:08.823Z,9.58
2019-02-06T00:41:54.864Z,9.60
2019-02-06T00:42:41.166Z,9.58
2019-02-06T00:43:27.216Z,10.38
2019-02-06T00:44:13.140Z,9.43
2019-02-06T00:44:59.082Z,9.73
2019-02-06T00:45:44.933Z,10.00
2019-02-06T00:46:31.147Z,9.70
2019-02-06T00:47:17.267Z,9.43
2019-02-06T00:48:03.083Z,8.80
2019-02-06T00:48:49.193Z,10.13
2019-02-06T00:49:35.470Z,9.68
2019-02-06T00:50:21.768Z,9.63
2019-02-06T00:51:08.079Z,9.15
2019-02-06T00:51:54.327Z,9.45
2019-02-06T00:52:40.561Z,9.53
2019-02-06T00:53:26.890Z,9.03
2019-02-06T00:54:13.037Z,9.63
2019-02-06T00:54:59.107Z,9.63
2019-02-06T00:55:45.279Z,9.45
2019-02-06T00:56:31.494Z,8.78
2019-02-06T00:57:18.788Z,9.65
2019-02-06T00:58:04.715Z,8.38
2019-02-06T00:58:50.379Z,9.10
2019-02-06T00:59:36.568Z,9.15
2019-02-06T01:00:22.599Z,9.28
2019-02-06T01:01:08.813Z,8.83
2019-02-06T01:01:54.756Z,9.50
2019-02-06T01:02:41.091Z,9.03
2019-02-06T01:03:27.072Z,9.30
2019-02-06T01:04:12.936Z,9.33
2019-02-06T01:04:59.155Z,9.48
2019-02-06T01:05:45.043Z,8.83
2019-02-06T01:06:31.036Z,9.40
2019-02-06T01:07:17.191Z,9.58
2019-02-06T01:08:03.764Z,9.35
2019-02-06T01:08:49.848Z,9.60
2019-02-06T01:09:36.019Z,9.55
2019-02-06T01:10:22.231Z,9.03
2019-02-06T01:11:08.292Z,9.70
2019-02-06T01:11:54.330Z,10.15
2019-02-06T01:12:40.521Z,9.20
2019-02-06T01:13:26.720Z,9.15
2019-02-06T01:14:12.848Z,9.48
2019-02-06T01:14:59.005Z,9.08
2019-02-06T01:15:45.277Z,9.30
2019-02-06T01:16:31.333Z,9.48
2019-02-06T01:17:17.470Z,9.63
2019-02-06T01:18:03.391Z,9.83
2019-02-06T01:18:49.399Z,9.60
2019-02-06T01:19:35.158Z,9.48
2019-02-06T01:20:20.944Z,9.53
2019-02-06T01:21:06.779Z,9.30
2019-02-06T01:21:53.025Z,9.50
2019-02-06T01:22:39.159Z,10.03
2019-02-06T01:23:25.128Z,10.35
2019-02-06T01:24:11.456Z,9.80
2019-02-06T01:24:57.605Z,10.23
2019-02-06T01:25:43.362Z,9.60
2019-02-06T01:26:29.536Z,9.53
2019-02-06T01:27:15.274Z,10.58
2019-02-06T01:28:01.429Z,9.73
2019-02-06T01:28:47.477Z,10.00
2019-02-06T01:29:33.588Z,9.63
2019-02-06T01:30:21.742Z,10.03
2019-02-06T01:31:12.018Z,9.23
2019-02-06T01:31:58.003Z,9.70
2019-02-06T01:32:44.153Z,10.60
2019-02-06T01:33:30.568Z,10.25
2019-02-06T01:34:16.589Z,9.43
2019-02-06T01:35:03.025Z,10.03
2019-02-06T01:35:50.189Z,9.15
2019-02-06T01:36:36.513Z,10.40
2019-02-06T01:37:22.837Z,9.63
2019-02-06T01:38:09.219Z,10.35
2019-02-06T01:38:55.360Z,9.40
2019-02-06T01:39:41.614Z,10.30
2019-02-06T01:40:27.664Z,9.60
2019-02-06T01:41:13.449Z,10.13
2019-02-06T01:41:59.642Z,9.95
2019-02-06T01:42:45.814Z,10.18
2019-02-06T01:43:31.533Z,9.40
2019-02-06T01:44:17.335Z,9.43
2019-02-06T01:45:05.177Z,10.15
2019-02-06T01:45:50.883Z,10.25
2019-02-06T01:46:36.652Z,9.60
2019-02-06T01:47:22.983Z,9.33
2019-02-06T01:48:09.272Z,9.75
2019-02-06T01:48:55.532Z,9.88
2019-02-06T01:49:44.655Z,9.28
2019-02-06T01:50:30.068Z,9.18
2019-02-06T01:51:16.248Z,9.50
2019-02-06T01:52:02.375Z,9.70
2019-02-06T01:52:48.575Z,9.78
2019-02-06T01:53:34.353Z,9.45
2019-02-06T01:54:20.548Z,9.65
2019-02-06T01:55:08.062Z,9.33
2019-02-06T01:55:54.024Z,10.13
2019-02-06T01:56:39.861Z,9.98
2019-02-06T01:57:26.015Z,10.30
2019-02-06T01:58:11.718Z,9.00
2019-02-06T01:58:57.831Z,8.95
2019-02-06T01:59:43.538Z,9.80
2019-02-06T02:00:29.288Z,9.30
2019-02-06T02:01:15.576Z,9.05
2019-02-06T02:02:01.767Z,9.53
2019-02-06T02:02:47.704Z,9.13
2019-02-06T02:03:34.224Z,10.45
2019-02-06T02:04:20.035Z,10.25
2019-02-06T02:05:06.358Z,9.75
2019-02-06T02:06:01.718Z,9.50
2019-02-06T02:06:40.733Z,9.15
2019-02-06T02:07:27.046Z,9.50
2019-02-06T02:08:13.377Z,9.48
2019-02-06T02:09:00.498Z,9.05
2019-02-06T02:09:46.381Z,9.70
2019-02-06T02:10:32.487Z,9.58
2019-02-06T02:11:19.232Z,9.30
2019-02-06T02:12:05.186Z,10.45
2019-02-06T02:12:50.935Z,9.88
2019-02-06T02:13:37.012Z,10.18
2019-02-06T02:14:23.284Z,9.85
2019-02-06T02:15:10.249Z,9.78
2019-02-06T02:15:56.235Z,9.85
2019-02-06T02:16:42.221Z,10.43
2019-02-06T02:17:27.894Z,9.28
2019-02-06T02:18:14.005Z,9.95
2019-02-06T02:18:59.651Z,9.58
2019-02-06T02:19:45.442Z,9.95
2019-02-06T02:20:31.109Z,9.58
2019-02-06T02:21:16.857Z,10.15
2019-02-06T02:22:02.581Z,10.15
2019-02-06T02:22:49.019Z,10.03
2019-02-06T02:23:35.106Z,10.03
2019-02-06T02:24:21.291Z,10.32
2019-02-06T02:25:07.625Z,10.18
2019-02-06T02:25:54.040Z,9.15
2019-02-06T02:26:40.000Z,9.83
2019-02-06T02:27:25.687Z,10.28
2019-02-06T02:28:11.743Z,9.65
2019-02-06T02:28:57.474Z,9.15
2019-02-06T02:29:43.612Z,10.15
2019-02-06T02:30:36.891Z,9.83
2019-02-06T02:31:23.056Z,9.58
2019-02-06T02:32:09.256Z,9.83
2019-02-06T02:32:55.529Z,10.05
2019-02-06T02:33:41.725Z,10.25
2019-02-06T02:34:27.775Z,9.65
2019-02-06T02:35:13.959Z,10.03
2019-02-06T02:36:00.114Z,9.48
2019-02-06T02:36:46.432Z,9.40
2019-02-06T02:37:32.365Z,9.25
2019-02-06T02:38:18.052Z,10.13
2019-02-06T02:39:06.575Z,10.20
2019-02-06T02:39:52.438Z,9.70
2019-02-06T02:40:38.218Z,9.63
2019-02-06T02:41:24.314Z,9.45
2019-02-06T02:42:10.413Z,9.20
2019-02-06T02:42:56.552Z,9.93
2019-02-06T02:43:42.876Z,10.03
2019-02-06T02:44:29.248Z,9.30
2019-02-06T02:45:16.411Z,9.70
2019-02-06T02:46:02.749Z,8.80
2019-02-06T02:46:48.982Z,9.48
2019-02-06T02:47:35.120Z,9.98
2019-02-06T02:48:21.421Z,9.55
2019-02-06T02:49:07.712Z,10.20
2019-02-06T02:49:53.974Z,9.30
2019-02-06T02:50:40.239Z,9.15
2019-02-06T02:51:26.077Z,9.90
2019-02-06T02:52:12.428Z,10.05
2019-02-06T02:52:58.679Z,9.83
2019-02-06T02:53:44.790Z,9.05
2019-02-06T02:54:30.519Z,9.18
2019-02-06T02:55:16.789Z,9.28
2019-02-06T02:56:02.863Z,9.85
2019-02-06T02:56:48.894Z,9.33
2019-02-06T02:57:35.144Z,9.25
2019-02-06T02:58:21.104Z,9.30
2019-02-06T02:59:07.168Z,8.95
2019-02-06T02:59:53.314Z,10.10
2019-02-06T03:00:58.398Z,8.68
2019-02-06T03:01:52.720Z,8.88
2019-02-06T03:02:45.161Z,8.65
2019-02-06T03:03:44.589Z,9.33
2019-02-06T03:04:50.629Z,9.40
2019-02-06T03:05:36.879Z,9.38
2019-02-06T03:06:28.326Z,9.70
2019-02-06T03:07:10.710Z,8.98
2019-02-06T03:07:56.972Z,9.65
2019-02-06T03:08:43.124Z,9.20
2019-02-06T03:09:28.786Z,9.45
2019-02-06T03:10:15.228Z,10.08
2019-02-06T03:11:01.463Z,9.98
2019-02-06T03:11:47.590Z,9.08
2019-02-06T03:12:33.848Z,9.15
2019-02-06T03:13:19.782Z,9.20
2019-02-06T03:14:06.100Z,8.88
2019-02-06T03:14:52.602Z,9.40
2019-02-06T03:15:38.620Z,9.30
2019-02-06T03:16:24.590Z,9.65
2019-02-06T03:17:10.348Z,9.73
2019-02-06T03:17:55.988Z,9.35
2019-02-06T03:18:42.132Z,9.23
2019-02-06T03:19:28.290Z,8.35
2019-02-06T03:20:14.575Z,9.15
2019-02-06T03:21:00.503Z,8.93
2019-02-06T03:21:46.920Z,9.18
2019-02-06T03:22:33.140Z,9.18
2019-02-06T03:23:19.156Z,9.08
2019-02-06T03:24:05.261Z,8.88
2019-02-06T03:24:51.195Z,9.53
2019-02-06T03:25:37.391Z,9.33
2019-02-06T03:26:23.652Z,9.08
2019-02-06T03:27:09.374Z,8.90
2019-02-06T03:27:55.144Z,9.08
2019-02-06T03:28:41.311Z,8.40
2019-02-06T03:29:27.653Z,9.38
2019-02-06T03:30:14.603Z,8.60
2019-02-06T03:31:00.668Z,9.10
2019-02-06T03:31:46.968Z,9.23
2019-02-06T03:32:32.653Z,8.30
2019-02-06T03:33:18.322Z,8.98
2019-02-06T03:34:05.119Z,9.45
2019-02-06T03:34:51.210Z,8.90
2019-02-06T03:35:37.175Z,8.78
2019-02-06T03:36:23.325Z,8.53
2019-02-06T03:37:09.105Z,9.30
2019-02-06T03:37:55.319Z,8.88
2019-02-06T03:38:41.471Z,9.23
2019-02-06T03:39:27.699Z,10.00
2019-02-06T03:40:15.384Z,9.08
2019-02-06T03:41:01.685Z,8.70
2019-02-06T03:41:47.651Z,10.05
2019-02-06T03:42:33.353Z,9.08
2019-02-06T03:43:19.661Z,8.65
2019-02-06T03:44:05.997Z,9.60
2019-02-06T03:44:52.675Z,8.88
2019-02-06T03:45:38.812Z,8.55
2019-02-06T03:46:24.550Z,9.00
2019-02-06T03:47:10.858Z,8.60
2019-02-06T03:47:56.711Z,8.98
2019-02-06T03:48:43.967Z,9.13
2019-02-06T03:49:30.195Z,9.30
2019-02-06T03:50:16.353Z,9.25
2019-02-06T03:51:02.044Z,8.38
2019-02-06T03:51:48.170Z,9.63
2019-02-06T03:52:34.291Z,8.75
2019-02-06T03:53:20.423Z,9.68
2019-02-06T03:54:06.680Z,9.48
2019-02-06T03:54:52.930Z,8.95
2019-02-06T03:55:38.831Z,8.85
2019-02-06T03:56:24.533Z,8.70
2019-02-06T03:57:10.741Z,8.80
2019-02-06T03:57:56.966Z,9.08
2019-02-06T03:58:43.120Z,9.55
2019-02-06T03:59:29.359Z,9.73
2019-02-06T04:00:15.261Z,9.80
2019-02-06T04:01:01.321Z,9.73
2019-02-06T04:01:47.099Z,8.88
2019-02-06T04:02:33.408Z,9.45
2019-02-06T04:03:19.603Z,9.08
2019-02-06T04:04:05.404Z,9.18
2019-02-06T04:04:51.169Z,9.45
2019-02-06T04:05:37.390Z,9.73
2019-02-06T04:06:23.523Z,9.75
2019-02-06T04:07:09.654Z,8.55
2019-02-06T04:07:55.462Z,9.40
2019-02-06T04:08:41.848Z,9.95
2019-02-06T04:09:27.715Z,8.83
2019-02-06T04:10:14.100Z,9.40
2019-02-06T04:11:00.055Z,9.00
2019-02-06T04:11:46.222Z,9.78
2019-02-06T04:12:32.385Z,9.65
2019-02-06T04:13:18.554Z,9.65
2019-02-06T04:14:07.549Z,9.13
2019-02-06T04:14:53.565Z,10.43
2019-02-06T04:15:39.301Z,10.20
2019-02-06T04:16:25.514Z,10.00
2019-02-06T04:17:11.736Z,9.73
2019-02-06T04:17:57.970Z,9.38
2019-02-06T04:18:44.331Z,9.40
2019-02-06T04:19:30.348Z,10.48
2019-02-06T04:20:16.149Z,10.10
2019-02-06T04:21:02.409Z,9.75
2019-02-06T04:21:48.684Z,9.80
2019-02-06T04:22:35.031Z,9.60
2019-02-06T04:23:20.860Z,9.75
2019-02-06T04:24:07.031Z,9.93
2019-02-06T04:24:53.137Z,9.98
2019-02-06T04:25:38.787Z,9.48
2019-02-06T04:26:24.452Z,9.25
2019-02-06T04:27:10.067Z,10.18
2019-02-06T04:27:55.915Z,9.73
2019-02-06T04:28:41.920Z,10.20
2019-02-06T04:29:28.076Z,9.90
2019-02-06T04:30:14.648Z,9.80
2019-02-06T04:31:00.266Z,9.63
2019-02-06T04:31:45.967Z,9.68
2019-02-06T04:32:31.728Z,9.85
2019-02-06T04:33:17.491Z,10.38
2019-02-06T04:34:03.834Z,9.43
2019-02-06T04:34:50.048Z,9.50
2019-02-06T04:35:36.356Z,9.23
2019-02-06T04:36:22.581Z,9.90
2019-02-06T04:37:08.714Z,10.80
2019-02-06T04:37:55.048Z,10.10
2019-02-06T04:38:41.164Z,9.73
2019-02-06T04:39:27.337Z,10.43
2019-02-06T04:40:15.173Z,9.55
2019-02-06T04:41:01.069Z,9.70
2019-02-06T04:41:47.367Z,9.60
2019-02-06T04:42:33.327Z,9.80
2019-02-06T04:43:18.986Z,10.03
2019-02-06T04:44:05.337Z,9.93
2019-02-06T04:44:51.795Z,10.40
2019-02-06T04:45:37.683Z,9.90
2019-02-06T04:46:23.910Z,9.95
2019-02-06T04:47:09.543Z,10.30
2019-02-06T04:47:55.825Z,10.38
2019-02-06T04:48:41.835Z,10.18
2019-02-06T04:49:28.078Z,10.32
2019-02-06T04:50:14.476Z,9.80
2019-02-06T04:51:00.532Z,10.78
2019-02-06T04:51:46.299Z,10.48
2019-02-06T04:52:32.225Z,9.48
2019-02-06T04:53:18.257Z,10.45
2019-02-06T04:54:04.680Z,9.38
2019-02-06T04:54:50.712Z,9.65
2019-02-06T04:55:36.762Z,11.15
2019-02-06T04:56:22.401Z,10.10
2019-02-06T04:57:09.537Z,10.45
2019-02-06T04:57:55.753Z,10.72
2019-02-06T04:58:41.958Z,10.85
2019-02-06T04:59:28.063Z,9.58
2019-02-06T05:00:19.776Z,10.35
2019-02-06T05:01:05.998Z,10.35
2019-02-06T05:01:52.704Z,10.58
2019-02-06T05:02:38.809Z,10.35
2019-02-06T05:03:25.796Z,10.03
2019-02-06T05:04:12.066Z,10.45
2019-02-06T05:04:58.244Z,10.80
2019-02-06T05:05:44.369Z,11.70
2019-02-06T05:06:30.032Z,10.32
2019-02-06T05:07:19.373Z,11.40
2019-02-06T05:08:03.464Z,10.55
2019-02-06T05:08:49.443Z,10.23
2019-02-06T05:09:35.853Z,10.65
2019-02-06T05:10:21.832Z,10.03
2019-02-06T05:11:07.548Z,10.48
2019-02-06T05:11:53.251Z,10.68
2019-02-06T05:12:39.322Z,11.18
2019-02-06T05:13:25.670Z,10.58
2019-02-06T05:14:11.886Z,11.35
2019-02-06T05:14:58.168Z,11.35
2019-02-06T05:15:44.370Z,10.18
2019-02-06T05:16:30.065Z,10.93
2019-02-06T05:17:16.326Z,10.40
2019-02-06T05:18:07.640Z,9.93
2019-02-06T05:18:53.455Z,10.30
2019-02-06T05:19:39.184Z,10.68
2019-02-06T05:20:36.546Z,11.18
2019-02-06T05:21:22.774Z,10.70
2019-02-06T05:22:08.466Z,10.35
2019-02-06T05:22:54.597Z,10.10
2019-02-06T05:23:40.794Z,10.28
2019-02-06T05:24:26.973Z,11.03
2019-02-06T05:25:13.145Z,11.40
2019-02-06T05:25:59.444Z,10.85
2019-02-06T05:26:45.437Z,11.28
2019-02-06T05:27:31.539Z,9.95
2019-02-06T05:28:18.359Z,14.73
2019-02-06T05:29:04.525Z,13.10
2019-02-06T05:29:50.252Z,10.38
2019-02-06T05:30:36.498Z,16.17
2019-02-06T05:31:22.309Z,12.23
2019-02-06T05:32:08.584Z,10.30
2019-02-06T05:32:54.915Z,10.53
2019-02-06T05:33:41.111Z,11.43
2019-02-06T05:34:27.663Z,10.63
2019-02-06T05:35:13.946Z,10.98
2019-02-06T05:36:00.302Z,10.93
2019-02-06T05:36:46.373Z,10.03
2019-02-06T05:37:32.786Z,11.38
2019-02-06T05:38:18.839Z,11.08
2019-02-06T05:39:06.846Z,10.82
2019-02-06T05:39:53.202Z,10.45
2019-02-06T05:40:38.921Z,11.10
2019-02-06T05:41:25.075Z,11.48
2019-02-06T05:42:11.316Z,11.73
2019-02-06T05:42:57.436Z,10.60
2019-02-06T05:43:43.100Z,10.03
2019-02-06T05:44:29.280Z,11.80
2019-02-06T05:45:15.072Z,11.55
2019-02-06T05:46:01.083Z,12.03
2019-02-06T05:46:47.583Z,12.07
2019-02-06T05:47:33.720Z,10.80
2019-02-06T05:48:19.391Z,11.15
2019-02-06T05:49:05.572Z,11.18
2019-02-06T05:49:51.328Z,11.38
2019-02-06T05:50:37.522Z,11.70
2019-02-06T05:51:23.798Z,10.75
2019-02-06T05:52:10.119Z,10.95
2019-02-06T05:52:56.441Z,10.53
2019-02-06T05:53:42.700Z,10.60
2019-02-06T05:54:28.985Z,10.85
2019-02-06T05:55:14.927Z,11.30
2019-02-06T05:56:01.241Z,12.03
2019-02-06T05:56:47.453Z,11.28
2019-02-06T05:57:33.503Z,11.55
2019-02-06T05:58:19.658Z,10.78
2019-02-06T05:59:06.244Z,11.03
2019-02-06T05:59:52.524Z,11.18
2019-02-06T06:00:42.595Z,12.10
2019-02-06T06:01:28.446Z,11.35
2019-02-06T06:02:14.669Z,11.85
2019-02-06T06:03:00.880Z,10.98
2019-02-06T06:03:47.043Z,12.10
2019-02-06T06:04:33.202Z,11.97
2019-02-06T06:05:19.396Z,11.65
2019-02-06T06:06:05.230Z,11.38
2019-02-06T06:06:51.140Z,11.22
2019-02-06T06:07:45.087Z,11.65
2019-02-06T06:08:25.335Z,10.98
2019-02-06T06:09:10.973Z,10.98
2019-02-06T06:09:57.155Z,11.18
2019-02-06T06:10:43.344Z,12.00
2019-02-06T06:11:29.578Z,11.95
2019-02-06T06:12:15.348Z,11.57
2019-02-06T06:13:01.775Z,11.60
2019-02-06T06:13:47.961Z,11.45
2019-02-06T06:14:34.273Z,11.33
2019-02-06T06:15:20.274Z,11.38
2019-02-06T06:16:06.434Z,11.10
2019-02-06T06:16:52.885Z,11.75
2019-02-06T06:17:38.834Z,10.90
2019-02-06T06:18:25.059Z,11.28
2019-02-06T06:19:11.231Z,11.45
2019-02-06T06:19:56.885Z,11.68
2019-02-06T06:20:43.154Z,11.28
2019-02-06T06:21:29.453Z,11.68
2019-02-06T06:22:15.471Z,12.10
2019-02-06T06:23:01.580Z,10.88
2019-02-06T06:23:47.737Z,11.80
2019-02-06T06:24:34.004Z,10.72
2019-02-06T06:25:20.497Z,11.35
2019-02-06T06:26:06.943Z,10.85
2019-02-06T06:26:53.127Z,11.00
2019-02-06T06:27:39.300Z,10.95
2019-02-06T06:28:25.573Z,11.55
2019-02-06T06:29:11.777Z,11.18
2019-02-06T06:29:58.022Z,11.88
2019-02-06T06:30:47.150Z,11.63
2019-02-06T06:31:31.903Z,10.25
2019-02-06T06:32:18.187Z,10.78
2019-02-06T06:33:03.940Z,10.72
2019-02-06T06:33:50.216Z,11.18
2019-02-06T06:34:36.621Z,10.75
2019-02-06T06:35:22.807Z,11.50
2019-02-06T06:36:10.052Z,12.20
2019-02-06T06:36:56.954Z,10.60
2019-02-06T06:37:43.481Z,11.43
2019-02-06T06:38:29.783Z,12.23
2019-02-06T06:39:16.716Z,11.53
2019-02-06T06:40:03.627Z,10.50
2019-02-06T06:40:49.972Z,10.43
2019-02-06T06:41:35.669Z,11.83
2019-02-06T06:42:24.160Z,11.48
2019-02-06T06:43:09.522Z,11.03
2019-02-06T06:43:55.668Z,10.95
2019-02-06T06:44:41.950Z,10.88
2019-02-06T06:45:28.209Z,11.05
2019-02-06T06:46:14.363Z,11.35
2019-02-06T06:47:00.521Z,10.90
2019-02-06T06:47:46.800Z,11.03
2019-02-06T06:48:33.136Z,11.08
2019-02-06T06:49:19.200Z,11.43
2019-02-06T06:50:07.035Z,11.68
2019-02-06T06:50:52.883Z,10.75
2019-02-06T06:51:38.525Z,11.08
2019-02-06T06:52:24.229Z,10.95
2019-02-06T06:53:09.924Z,11.10
2019-02-06T06:53:56.195Z,11.75
2019-02-06T06:54:42.002Z,10.85
2019-02-06T06:55:28.358Z,11.20
2019-02-06T06:56:14.569Z,11.85
2019-02-06T06:57:00.435Z,11.05
2019-02-06T06:57:46.692Z,12.10
2019-02-06T06:58:32.930Z,11.85
2019-02-06T06:59:19.139Z,11.38
2019-02-06T07:00:07.590Z,12.53
2019-02-06T07:00:53.468Z,10.70
2019-02-06T07:01:39.533Z,11.43
2019-02-06T07:02:25.597Z,12.30
2019-02-06T07:03:11.815Z,11.70
2019-02-06T07:03:58.070Z,11.60
2019-02-06T07:04:44.217Z,11.28
2019-02-06T07:05:30.356Z,11.45
2019-02-06T07:06:16.549Z,10.45
2019-02-06T07:07:02.720Z,10.70
2019-02-06T07:07:49.288Z,11.15
2019-02-06T07:08:35.003Z,12.10
2019-02-06T07:09:21.292Z,10.93
2019-02-06T07:10:08.010Z,11.40
2019-02-06T07:10:54.103Z,11.63
2019-02-06T07:11:39.850Z,11.05
2019-02-06T07:12:26.224Z,11.35
2019-02-06T07:13:12.868Z,11.30
2019-02-06T07:13:58.618Z,11.33
2019-02-06T07:14:44.828Z,11.60
2019-02-06T07:15:32.665Z,11.48
2019-02-06T07:16:19.387Z,11.35
2019-02-06T07:17:05.256Z,11.08
2019-02-06T07:17:51.661Z,11.20
2019-02-06T07:18:37.613Z,11.85
2019-02-06T07:19:23.546Z,11.80
2019-02-06T07:20:11.599Z,10.93
2019-02-06T07:20:57.989Z,10.80
2019-02-06T07:21:44.056Z,10.98
2019-02-06T07:22:30.477Z,11.63
2019-02-06T07:23:16.598Z,11.20
2019-02-06T07:24:02.743Z,11.22
2019-02-06T07:24:48.841Z,10.85
2019-02-06T07:25:34.963Z,11.35
2019-02-06T07:26:20.643Z,10.50
2019-02-06T07:27:06.981Z,11.28
2019-02-06T07:27:53.020Z,11.35
2019-02-06T07:28:39.021Z,10.72
2019-02-06T07:29:25.181Z,11.60
2019-02-06T07:30:15.980Z,11.60
2019-02-06T07:31:02.018Z,11.08
2019-02-06T07:31:48.116Z,11.48
2019-02-06T07:32:36.242Z,11.08
2019-02-06T07:33:21.439Z,11.78
2019-02-06T07:34:07.642Z,11.18
2019-02-06T07:34:53.969Z,10.95
2019-02-06T07:35:40.343Z,11.25
2019-02-06T07:36:26.008Z,11.12
2019-02-06T07:37:11.846Z,11.50
2019-02-06T07:37:58.269Z,10.78
2019-02-06T07:38:44.203Z,11.10
2019-02-06T07:39:30.748Z,11.30
2019-02-06T07:40:17.261Z,11.05
2019-02-06T07:41:03.525Z,11.70
2019-02-06T07:41:49.820Z,11.57
2019-02-06T07:42:35.793Z,10.98
2019-02-06T07:43:22.131Z,10.53
2019-02-06T07:44:08.251Z,9.73
2019-02-06T07:44:57.015Z,10.93
2019-02-06T07:45:43.316Z,10.82
2019-02-06T07:46:29.828Z,10.80
2019-02-06T07:47:15.664Z,10.55
2019-02-06T07:48:01.503Z,10.93
2019-02-06T07:48:47.728Z,11.08
2019-02-06T07:49:33.490Z,10.53
2019-02-06T07:50:24.676Z,10.72
2019-02-06T07:51:11.021Z,10.32
2019-02-06T07:51:57.160Z,10.30
2019-02-06T07:52:43.432Z,10.82
2019-02-06T07:53:29.755Z,10.23
2019-02-06T07:54:15.483Z,10.08
2019-02-06T07:55:01.120Z,9.33
2019-02-06T07:55:47.540Z,10.50
2019-02-06T07:56:33.519Z,10.03
2019-02-06T07:57:19.848Z,9.75
2019-02-06T07:58:06.225Z,10.72
2019-02-06T07:58:52.496Z,9.85
2019-02-06T07:59:38.165Z,10.43
2019-02-06T08:00:24.482Z,9.70
2019-02-06T08:01:10.645Z,10.00
2019-02-06T08:01:56.543Z,11.00
2019-02-06T08:02:42.848Z,10.18
2019-02-06T08:03:28.878Z,10.75
2019-02-06T08:04:15.063Z,10.28
2019-02-06T08:05:01.424Z,10.30
2019-02-06T08:05:47.638Z,10.40
2019-02-06T08:06:33.723Z,9.80
2019-02-06T08:07:20.063Z,9.43
2019-02-06T08:08:06.562Z,10.45
2019-02-06T08:08:52.506Z,9.33
2019-02-06T08:09:38.850Z,10.05
2019-02-06T08:10:26.962Z,9.73
2019-02-06T08:11:12.998Z,9.50
2019-02-06T08:11:59.774Z,10.05
2019-02-06T08:12:45.820Z,9.58
2019-02-06T08:13:32.015Z,9.58
2019-02-06T08:14:18.226Z,10.55
2019-02-06T08:15:05.451Z,9.65
2019-02-06T08:15:51.427Z,9.78
2019-02-06T08:16:37.612Z,10.15
2019-02-06T08:17:23.340Z,10.70
2019-02-06T08:18:09.377Z,9.80
2019-02-06T08:18:55.519Z,10.28
2019-02-06T08:19:41.204Z,10.40
2019-02-06T08:20:26.947Z,10.13
2019-02-06T08:21:13.084Z,10.32
2019-02-06T08:21:59.192Z,9.00
2019-02-06T08:22:44.880Z,9.58
2019-02-06T08:23:31.171Z,9.15
2019-02-06T08:24:16.858Z,9.33
2019-02-06T08:25:03.361Z,9.33
2019-02-06T08:25:49.803Z,9.50
2019-02-06T08:26:35.926Z,10.50
2019-02-06T08:27:22.246Z,10.45
2019-02-06T08:28:08.451Z,9.73
2019-02-06T08:28:54.325Z,9.18
2019-02-06T08:29:39.968Z,9.70
2019-02-06T08:30:30.680Z,9.73
2019-02-06T08:31:16.647Z,10.85
2019-02-06T08:32:02.440Z,9.40
2019-02-06T08:32:48.624Z,9.35
2019-02-06T08:33:34.345Z,9.55
2019-02-06T08:34:20.375Z,9.93
2019-02-06T08:35:06.517Z,9.70
2019-02-06T08:35:52.747Z,9.28
2019-02-06T08:36:38.972Z,9.50
2019-02-06T08:37:24.655Z,9.85
2019-02-06T08:38:10.409Z,9.13
2019-02-06T08:38:56.529Z,9.33
2019-02-06T08:39:42.728Z,9.38
2019-02-06T08:40:28.865Z,9.60
2019-02-06T08:41:15.252Z,9.73
2019-02-06T08:42:01.412Z,9.45
2019-02-06T08:42:47.625Z,9.60
2019-02-06T08:43:34.073Z,9.48
2019-02-06T08:44:20.085Z,9.00
2019-02-06T08:45:06.311Z,9.43
2019-02-06T08:45:53.032Z,9.35
2019-02-06T08:46:38.966Z,10.03
2019-02-06T08:47:25.351Z,9.55
2019-02-06T08:48:11.551Z,9.93
2019-02-06T08:48:58.093Z,9.80
2019-02-06T08:49:43.962Z,9.20
2019-02-06T08:50:30.093Z,8.95
2019-02-06T08:51:15.788Z,9.63
2019-02-06T08:52:01.717Z,8.83
2019-02-06T08:52:47.990Z,9.15
2019-02-06T08:53:33.942Z,9.28
2019-02-06T08:54:20.437Z,9.28
2019-02-06T08:55:08.831Z,9.25
2019-02-06T08:55:55.538Z,8.90
2019-02-06T08:56:41.455Z,8.48
2019-02-06T08:57:27.599Z,8.75
2019-02-06T08:58:13.344Z,9.00
2019-02-06T08:58:59.560Z,9.50
2019-02-06T08:59:45.587Z,9.45
2019-02-06T09:00:33.350Z,8.73
2019-02-06T09:01:19.510Z,9.08
2019-02-06T09:02:05.194Z,9.15
2019-02-06T09:02:50.959Z,9.28
2019-02-06T09:03:37.115Z,8.85
2019-02-06T09:04:22.827Z,9.20
2019-02-06T09:05:08.793Z,10.05
2019-02-06T09:05:54.745Z,9.43
2019-02-06T09:06:40.524Z,9.50
2019-02-06T09:07:26.749Z,9.58
2019-02-06T09:08:13.174Z,9.08
2019-02-06T09:09:00.103Z,9.20
2019-02-06T09:09:46.174Z,9.05
2019-02-06T09:10:32.478Z,9.03
2019-02-06T09:11:18.781Z,9.60
2019-02-06T09:12:04.673Z,9.25
2019-02-06T09:12:50.511Z,9.58
2019-02-06T09:13:36.431Z,8.73
2019-02-06T09:14:22.559Z,9.05
2019-02-06T09:15:08.985Z,8.95
2019-02-06T09:15:54.775Z,9.13
2019-02-06T09:16:40.428Z,9.20
2019-02-06T09:17:26.761Z,8.75
2019-02-06T09:18:12.911Z,9.70
2019-02-06T09:18:59.188Z,9.23
2019-02-06T09:19:45.633Z,9.60
2019-02-06T09:20:31.947Z,8.85
2019-02-06T09:21:18.565Z,9.70
2019-02-06T09:22:04.559Z,9.53
2019-02-06T09:22:50.649Z,8.78
2019-02-06T09:23:36.871Z,9.15
2019-02-06T09:24:23.060Z,9.93
2019-02-06T09:25:10.305Z,8.65
2019-02-06T09:25:57.495Z,9.38
2019-02-06T09:26:43.852Z,8.80
2019-02-06T09:27:29.995Z,9.35
2019-02-06T09:28:15.712Z,9.25
2019-02-06T09:29:01.974Z,8.83
2019-02-06T09:29:48.143Z,9.15
2019-02-06T09:30:35.170Z,8.93
2019-02-06T09:31:21.871Z,9.40
2019-02-06T09:32:07.905Z,8.38
2019-02-06T09:32:54.723Z,9.50
2019-02-06T09:33:41.160Z,8.70
2019-02-06T09:34:27.263Z,8.45
2019-02-06T09:35:13.417Z,9.20
2019-02-06T09:35:59.585Z,8.65
2019-02-06T09:36:45.665Z,8.98
2019-02-06T09:37:31.304Z,8.73
2019-02-06T09:38:17.407Z,8.43
2019-02-06T09:39:11.706Z,8.50
2019-02-06T09:39:54.752Z,8.05
2019-02-06T09:40:40.965Z,8.75
2019-02-06T09:41:26.624Z,9.13
2019-02-06T09:42:12.720Z,8.50
2019-02-06T09:42:59.277Z,8.53
2019-02-06T09:43:45.611Z,9.03
2019-02-06T09:44:31.995Z,9.33
2019-02-06T09:45:17.857Z,8.45
2019-02-06T09:46:03.850Z,8.53
2019-02-06T09:46:49.833Z,8.70
2019-02-06T09:47:36.155Z,8.13
2019-02-06T09:48:22.878Z,8.50
2019-02-06T09:49:09.054Z,9.15
2019-02-06T09:49:55.313Z,9.05
2019-02-06T09:50:41.120Z,8.40
2019-02-06T09:51:27.431Z,8.38
2019-02-06T09:52:13.153Z,8.53
2019-02-06T09:52:58.820Z,8.63
2019-02-06T09:53:45.009Z,8.43
2019-02-06T09:54:31.181Z,8.75
2019-02-06T09:55:17.576Z,8.33
2019-02-06T09:56:03.807Z,8.33
2019-02-06T09:56:50.756Z,9.48
2019-02-06T09:57:36.986Z,8.73
2019-02-06T09:58:23.518Z,8.90
2019-02-06T09:59:09.635Z,8.50
2019-02-06T09:59:55.883Z,8.68
2019-02-06T10:00:41.972Z,9.10
2019-02-06T10:01:27.891Z,9.18
2019-02-06T10:02:13.999Z,8.78
2019-02-06T10:03:00.830Z,9.13
2019-02-06T10:03:47.108Z,8.33
2019-02-06T10:04:33.363Z,9.05
2019-02-06T10:05:19.633Z,9.35
2019-02-06T10:06:05.714Z,8.45
2019-02-06T10:06:54.296Z,8.75
2019-02-06T10:07:39.342Z,9.25
2019-02-06T10:08:25.066Z,9.28
2019-02-06T10:09:22.295Z,8.93